Time;durP1;ratioP1;P1;durP2;ratioP2;P2;SDS_P1;SDS_P2;PMS_P1;PMS_P2;Temp;Humidity;BMP_temperature;BMP_pressure;BME280_temperature;BME280_humidity;BME280_pressure;Samples;Min_cycle;Max_cycle;Signal;HPM_P1;HPM_P2
2022/06/27 00:00:54;;;;;;;;;;;;;;;12.78;52.53;96411.84;6370617;28;19923;-67
2022/06/27 00:03:55;;;;;;;;;;;;;;;12.71;52.07;96412.44;6370334;28;19927;-68
2022/06/27 00:06:59;;;;;;;;;;;;;;;12.58;52.26;96426.63;6371688;28;19930;-66
2022/06/27 00:10:05;;;;;;;;;;;;;;;12.61;51.59;96435.28;6371325;28;20011;-68
2022/06/27 00:13:09;;;;;;;;;;;;;;;12.52;51.52;96426.31;6353542;28;19930;-67
2022/06/27 00:16:10;;;;;;;;;;;;;;;12.52;51.33;96426.31;6371121;28;19924;-68
2022/06/27 00:19:11;;;;;;;;;;;;;;;12.56;51.10;96428.56;6351941;28;19930;-67
2022/06/27 00:22:14;;;;;;;;;;;;;;;12.50;50.76;96425.59;6370587;28;19923;-68
2022/06/27 00:25:17;;;;;;;;;;;;;;;12.50;51.05;96421.13;6370589;28;19945;-67
2022/06/27 00:28:23;;;;;;;;;;;;;;;12.62;50.34;96410.56;6371012;28;19923;-68
2022/06/27 00:31:26;;;;;;;;;;;;;;;12.68;50.09;96425.91;6370846;28;19923;-68
2022/06/27 00:34:31;;;;;;;;;;;;;;;12.68;49.73;96425.91;6370356;28;19923;-68
2022/06/27 00:37:32;;;;;;;;;;;;;;;12.74;49.33;96420.16;6370832;28;19930;-67
2022/06/27 00:40:33;;;;;;;;;;;;;;;12.68;49.36;96420.63;6369836;28;20049;-67
2022/06/27 00:43:41;;;;;;;;;;;;;;;12.50;49.82;96429.06;6371125;28;20396;-68
2022/06/27 00:46:45;;;;;;;;;;;;;;;12.68;49.55;96431.19;6371060;28;19923;-68
2022/06/27 00:49:49;;;;;;;;;;;;;;;12.71;49.26;96430.94;6370810;28;20018;-68
2022/06/27 00:52:51;;;;;;;;;;;;;;;12.54;49.54;96430.50;6370081;28;19923;-67
2022/06/27 00:55:54;;;;;;;;;;;;;;;12.62;49.61;96437.78;6370542;28;19923;-68
2022/06/27 00:58:55;;;;;;;;;;;;;;;12.74;49.39;96436.00;6373953;27;19946;-67
2022/06/27 01:01:57;;;;;;;;;;;;;;;12.73;49.55;96443.03;6374401;27;19964;-68
2022/06/27 01:05:01;;;;;;;;;;;;;;;12.78;49.47;96440.03;6374431;27;19923;-68
2022/06/27 01:08:04;;;;;;;;;;;;;;;12.89;49.27;96440.03;6375401;27;19923;-68
2022/06/27 01:11:08;;;;;;;;;;;;;;;12.86;49.21;96445.56;6374971;27;19923;-67
2022/06/27 01:14:10;;;;;;;;;;;;;;;12.87;49.56;96451.66;6374111;27;20410;-68
2022/06/27 01:17:14;;;;;;;;;;;;;;;12.98;49.31;96460.38;6374315;27;20384;-69
2022/06/27 01:20:15;;;;;;;;;;;;;;;13.04;49.19;96459.88;6375237;27;19930;-68
2022/06/27 01:23:20;;;;;;;;;;;;;;;13.04;49.41;96459.88;6374615;27;19973;-67
2022/06/27 01:26:24;;;;;;;;;;;;;;;13.27;49.03;96462.47;6374630;27;19927;-68
2022/06/27 01:29:30;;;;;;;;;;;;;;;13.26;48.96;96447.59;6373590;27;19923;-68
2022/06/27 01:32:31;;;;;;;;;;;;;;;13.29;49.01;96452.63;6373836;27;20420;-68
2022/06/27 01:35:35;;;;;;;;;;;;;;;13.52;48.34;96458.66;6374698;27;19923;-67
2022/06/27 01:38:38;;;;;;;;;;;;;;;13.54;48.32;96456.72;6374521;27;20419;-67
2022/06/27 01:41:40;;;;;;;;;;;;;;;13.54;48.30;96453.25;6373647;27;20002;-67
2022/06/27 01:44:43;;;;;;;;;;;;;;;13.86;47.83;96459.31;6374344;27;19923;-68
2022/06/27 01:47:44;;;;;;;;;;;;;;;13.86;47.87;96456.66;6374114;27;19923;-68
2022/06/27 01:50:53;;;;;;;;;;;;;;;13.93;48.07;96462.28;6374294;27;19923;-67
2022/06/27 01:53:59;;;;;;;;;;;;;;;13.84;47.96;96458.63;6373481;27;20420;-68
2022/06/27 01:57:07;;;;;;;;;;;;;;;13.80;48.08;96457.19;6356648;27;19924;-68
2022/06/27 02:00:09;;;;;;;;;;;;;;;13.97;47.74;96462.84;6355141;27;19924;-69
2022/06/27 02:03:17;;;;;;;;;;;;;;;14.17;47.31;96467.28;6374034;27;19924;-68
2022/06/27 02:06:19;;;;;;;;;;;;;;;13.81;47.96;96472.06;6373767;27;19923;-68
2022/06/27 02:09:20;;;;;;;;;;;;;;;13.74;48.34;96478.03;6354114;27;19931;-68
2022/06/27 02:12:26;;;;;;;;;;;;;;;13.81;48.04;96487.94;6373262;27;19924;-68
2022/06/27 02:15:27;;;;;;;;;;;;;;;13.87;47.64;96486.59;6372842;27;19923;-67
2022/06/27 02:18:29;;;;;;;;;;;;;;;13.94;47.54;96493.03;6371648;27;19930;-67
2022/06/27 02:21:34;;;;;;;;;;;;;;;14.03;46.67;96486.13;6373489;27;20408;-67
2022/06/27 02:24:36;;;;;;;;;;;;;;;13.87;47.08;96495.38;6372865;27;19931;-67
2022/06/27 02:27:40;;;;;;;;;;;;;;;14.09;46.46;96491.72;6373150;27;19923;-68
2022/06/27 02:30:41;;;;;;;;;;;;;;;14.00;46.83;96496.97;6372630;27;19923;-67
2022/06/27 02:33:43;;;;;;;;;;;;;;;14.28;46.53;96488.38;6371915;27;19955;-68
2022/06/27 02:36:49;;;;;;;;;;;;;;;14.71;45.80;96489.97;6373165;27;19923;-67
2022/06/27 02:39:51;;;;;;;;;;;;;;;14.91;45.46;96485.56;6372889;27;19923;-68
2022/06/27 02:42:57;;;;;;;;;;;;;;;15.27;44.80;96489.38;6353939;27;19924;-67
2022/06/27 02:45:58;;;;;;;;;;;;;;;15.23;44.65;96495.94;6372347;27;19923;-67
2022/06/27 02:49:00;;;;;;;;;;;;;;;15.22;44.65;96483.66;6372200;27;20001;-67
2022/06/27 02:52:12;;;;;;;;;;;;;;;15.25;44.38;96483.38;6371666;27;20304;-68
2022/06/27 02:55:14;;;;;;;;;;;;;;;15.23;44.57;96485.34;6371732;27;19923;-67
2022/06/27 02:58:19;;;;;;;;;;;;;;;15.37;44.41;96485.91;6353487;27;20064;-68
2022/06/27 03:01:23;;;;;;;;;;;;;;;15.23;44.54;96479.22;6372438;27;20392;-68
2022/06/27 03:04:24;;;;;;;;;;;;;;;15.16;44.78;96486.88;6371038;27;19923;-67
2022/06/27 03:07:26;;;;;;;;;;;;;;;15.37;44.37;96496.50;6371286;27;19930;-68
2022/06/27 03:10:32;;;;;;;;;;;;;;;15.54;43.97;96495.84;6372400;27;19923;-68
2022/06/27 03:13:35;;;;;;;;;;;;;;;15.53;43.93;96502.09;6372134;27;19927;-68
2022/06/27 03:16:39;;;;;;;;;;;;;;;15.15;44.49;96498.44;6371982;27;19953;-67
2022/06/27 03:19:41;;;;;;;;;;;;;;;14.58;45.63;96499.97;6371145;27;20300;-68
2022/06/27 03:22:45;;;;;;;;;;;;;;;14.30;46.36;96507.59;6372016;27;19927;-68
2022/06/27 03:25:50;;;;;;;;;;;;;;;14.29;46.30;96511.19;6371452;27;20248;-68
2022/06/27 03:28:56;;;;;;;;;;;;;;;14.35;46.38;96505.41;6371737;27;20312;-67
2022/06/27 03:31:59;;;;;;;;;;;;;;;14.42;46.03;96510.16;6370840;27;20022;-67
2022/06/27 03:35:03;;;;;;;;;;;;;;;14.85;45.25;96506.47;6371302;27;19923;-67
2022/06/27 03:38:04;;;;;;;;;;;;;;;14.95;45.00;96502.03;6371238;27;19927;-68
2022/06/27 03:41:07;;;;;;;;;;;;;;;15.09;44.48;96512.25;6370996;27;19946;-68
2022/06/27 03:44:11;;;;;;;;;;;;;;;15.21;44.44;96507.66;6371367;27;20416;-68
2022/06/27 03:47:15;;;;;;;;;;;;;;;15.70;43.79;96503.25;6371446;27;19981;-68
2022/06/27 03:50:19;;;;;;;;;;;;;;;16.31;42.80;96499.41;6370615;27;19923;-68
2022/06/27 03:53:22;;;;;;;;;;;;;;;16.87;41.75;96498.50;6370639;27;20303;-68
2022/06/27 03:56:23;;;;;;;;;;;;;;;17.36;41.09;96503.53;6370763;27;19930;-68
2022/06/27 03:59:26;;;;;;;;;;;;;;;17.61;40.34;96507.28;6370209;28;19923;-68
2022/06/27 04:02:27;;;;;;;;;;;;;;;17.42;40.84;96509.06;6371092;28;19924;-68
2022/06/27 04:05:28;;;;;;;;;;;;;;;17.25;40.96;96507.25;6371509;28;19969;-67
2022/06/27 04:08:32;;;;;;;;;;;;;;;16.90;41.40;96507.97;6371401;28;19931;-67
2022/06/27 04:11:33;;;;;;;;;;;;;;;16.71;41.66;96508.91;6371052;28;19930;-68
2022/06/27 04:14:36;;;;;;;;;;;;;;;16.53;42.17;96500.84;6371135;28;19928;-68
2022/06/27 04:17:40;;;;;;;;;;;;;;;16.48;42.51;96509.25;6370970;28;19923;-68
2022/06/27 04:20:44;;;;;;;;;;;;;;;16.78;41.96;96496.72;6371177;28;19923;-67
2022/06/27 04:23:48;;;;;;;;;;;;;;;17.02;41.70;96505.00;6371088;28;19927;-68
2022/06/27 04:26:51;;;;;;;;;;;;;;;16.84;41.38;96504.09;6370944;28;19924;-68
2022/06/27 04:29:54;;;;;;;;;;;;;;;16.41;41.66;96500.19;6370254;28;19924;-68
2022/06/27 04:32:57;;;;;;;;;;;;;;;15.75;43.08;96500.19;6373392;27;19923;-67
2022/06/27 04:36:00;;;;;;;;;;;;;;;15.37;43.80;96502.66;6375795;27;19923;-67
2022/06/27 04:39:03;;;;;;;;;;;;;;;15.23;44.46;96503.91;6375237;27;19923;-67
2022/06/27 04:42:07;;;;;;;;;;;;;;;15.06;44.77;96504.56;6375909;27;19923;-68
2022/06/27 04:45:09;;;;;;;;;;;;;;;14.96;44.77;96498.41;6375535;27;19919;-68
2022/06/27 04:48:12;;;;;;;;;;;;;;;15.56;44.14;96496.53;6374659;27;20420;-67
2022/06/27 04:51:16;;;;;;;;;;;;;;;18.42;38.94;96514.25;6375583;27;19931;-67
2022/06/27 04:54:21;;;;;;;;;;;;;;;21.63;34.17;96523.06;6375425;27;19920;-68
2022/06/27 04:57:25;;;;;;;;;;;;;;;22.68;33.19;96509.78;6375422;27;19927;-67
2022/06/27 05:00:28;;;;;;;;;;;;;;;22.98;33.16;96517.84;6375166;27;19923;-67
2022/06/27 05:03:32;;;;;;;;;;;;;;;22.51;33.14;96525.22;6357121;27;19930;-68
2022/06/27 05:06:36;;;;;;;;;;;;;;;21.26;34.60;96506.66;6374970;27;19923;-68
2022/06/27 05:09:39;;;;;;;;;;;;;;;22.71;33.29;96509.41;6375231;27;19923;-68
2022/06/27 05:12:43;;;;;;;;;;;;;;;27.13;27.84;96516.25;6374862;27;20397;-68
2022/06/27 05:15:44;;;;;;;;;;;;;;;31.09;25.25;96529.66;6373285;27;19930;-67
2022/06/27 05:18:49;;;;;;;;;;;;;;;34.57;18.82;96533.22;6374737;27;19992;-66
2022/06/27 05:21:53;;;;;;;;;;;;;;;37.62;19.53;96543.63;6355673;27;19931;-67
2022/06/27 05:24:58;;;;;;;;;;;;;;;39.70;18.17;96551.38;6373076;27;20308;-67
2022/06/27 05:28:01;;;;;;;;;;;;;;;38.36;16.24;96545.47;6373806;27;19946;-67
2022/06/27 05:31:05;;;;;;;;;;;;;;;37.08;16.23;96554.16;6374557;27;20165;-68
2022/06/27 05:34:09;;;;;;;;;;;;;;;38.98;16.22;96553.25;6374442;27;19924;-67
2022/06/27 05:37:13;;;;;;;;;;;;;;;41.56;14.33;96564.84;6374463;27;20360;-67
2022/06/27 05:40:19;;;;;;;;;;;;;;;42.04;13.58;96547.00;6374320;27;20335;-68
2022/06/27 05:43:23;;;;;;;;;;;;;;;41.78;14.17;96553.03;6374360;27;20304;-68
2022/06/27 05:46:25;;;;;;;;;;;;;;;42.38;13.84;96541.81;6374212;27;19927;-68
2022/06/27 05:49:28;;;;;;;;;;;;;;;43.23;11.97;96547.50;6374079;27;19923;-67
2022/06/27 05:52:31;;;;;;;;;;;;;;;43.11;12.92;96552.75;6373037;27;19930;-67
2022/06/27 05:55:37;;;;;;;;;;;;;;;43.00;12.91;96535.63;6373898;27;20316;-66
2022/06/27 05:58:43;;;;;;;;;;;;;;;43.76;12.18;96528.31;6373885;27;19927;-67
2022/06/27 06:01:47;;;;;;;;;;;;;;;45.35;10.10;96535.94;6373954;27;19930;-67
2022/06/27 06:04:51;;;;;;;;;;;;;;;47.28;11.17;96541.78;6373940;27;19923;-68
2022/06/27 06:07:59;;;;;;;;;;;;;;;47.96;10.44;96532.91;6373590;27;19946;-68
2022/06/27 06:11:01;;;;;;;;;;;;;;;48.28;10.06;96539.50;6372822;27;19930;-68
2022/06/27 06:14:08;;;;;;;;;;;;;;;48.24;10.41;96533.81;6373534;27;19923;-68
2022/06/27 06:17:12;;;;;;;;;;;;;;;48.16;9.44;96519.97;6373217;27;19947;-68
2022/06/27 06:20:16;;;;;;;;;;;;;;;48.49;9.29;96520.56;6373485;27;20013;-68
2022/06/27 06:23:20;;;;;;;;;;;;;;;48.41;7.83;96521.53;6373563;27;19965;-68
2022/06/27 06:26:23;;;;;;;;;;;;;;;47.21;10.26;96511.72;6373848;27;20296;-67
2022/06/27 06:29:28;;;;;;;;;;;;;;;44.38;10.99;96509.50;6372877;27;19927;-67
2022/06/27 06:32:31;;;;;;;;;;;;;;;41.43;12.26;96491.06;6373014;27;19923;-67
2022/06/27 06:35:34;;;;;;;;;;;;;;;42.01;11.69;96490.38;6372856;27;19919;-67
2022/06/27 06:38:38;;;;;;;;;;;;;;;44.82;9.85;96490.06;6372738;27;20300;-67
2022/06/27 06:41:41;;;;;;;;;;;;;;;44.85;10.63;96500.50;6372906;27;19923;-67
2022/06/27 06:44:46;;;;;;;;;;;;;;;46.41;9.56;96504.47;6372989;27;19923;-68
2022/06/27 06:47:49;;;;;;;;;;;;;;;48.17;8.92;96504.88;6371929;27;19924;-66
2022/06/27 06:50:54;;;;;;;;;;;;;;;47.48;8.98;96501.91;6371908;27;19927;-67
2022/06/27 06:53:58;;;;;;;;;;;;;;;46.24;8.91;96505.41;6372671;27;19923;-68
2022/06/27 06:57:02;;;;;;;;;;;;;;;44.27;9.79;96490.72;6371699;27;20393;-68
2022/06/27 07:00:06;;;;;;;;;;;;;;;42.27;10.64;96490.63;6372056;27;20389;-67
2022/06/27 07:03:10;;;;;;;;;;;;;;;44.09;10.04;96489.91;6372454;27;19923;-67
2022/06/27 07:06:17;;;;;;;;;;;;;;;45.47;9.22;96502.75;6372117;27;19920;-67
2022/06/27 07:09:24;;;;;;;;;;;;;;;46.69;9.16;96499.16;6371929;27;19923;-67
2022/06/27 07:12:29;;;;;;;;;;;;;;;45.39;9.11;96509.16;6371776;27;19923;-67
2022/06/27 07:15:33;;;;;;;;;;;;;;;42.42;10.43;96489.47;6371933;27;19923;-67
2022/06/27 07:18:37;;;;;;;;;;;;;;;43.14;10.04;96488.47;6370401;27;19923;-67
2022/06/27 07:21:44;;;;;;;;;;;;;;;45.75;9.22;96507.84;6371800;27;20488;-67
2022/06/27 07:24:47;;;;;;;;;;;;;;;45.11;9.42;96499.59;6370724;27;19928;-67
2022/06/27 07:27:51;;;;;;;;;;;;;;;46.50;9.02;96490.47;6371667;27;19927;-67
2022/06/27 07:30:53;;;;;;;;;;;;;;;46.03;9.52;96487.88;6370328;27;20293;-67
2022/06/27 07:33:54;;;;;;;;;;;;;;;45.58;9.39;96500.44;6371836;27;20392;-67
2022/06/27 07:36:59;;;;;;;;;;;;;;;45.95;9.02;96488.75;6371817;27;20312;-67
2022/06/27 07:40:00;;;;;;;;;;;;;;;46.39;8.47;96500.41;6371542;27;19923;-68
2022/06/27 07:43:01;;;;;;;;;;;;;;;46.20;8.81;96498.06;6370886;27;20303;-66
2022/06/27 07:46:05;;;;;;;;;;;;;;;47.31;8.70;96490.94;6371392;27;20486;-66
2022/06/27 07:49:13;;;;;;;;;;;;;;;49.31;8.03;96507.31;6371459;27;20388;-67
2022/06/27 07:52:19;;;;;;;;;;;;;;;49.24;7.72;96501.53;6371424;27;19919;-68
2022/06/27 07:55:24;;;;;;;;;;;;;;;49.00;8.24;96492.91;6371010;27;20449;-68
2022/06/27 07:58:35;;;;;;;;;;;;;;;49.52;7.26;96495.84;6370931;27;19923;-67
2022/06/27 08:01:42;;;;;;;;;;;;;;;48.00;7.88;96483.63;6371226;28;20392;-68
2022/06/27 08:04:45;;;;;;;;;;;;;;;44.20;9.69;96473.78;6371105;28;19923;-68
2022/06/27 08:07:46;;;;;;;;;;;;;;;43.20;10.12;96464.22;6371951;27;19923;-67
2022/06/27 08:10:50;;;;;;;;;;;;;;;44.42;9.39;96476.41;6376331;27;19935;-66
2022/06/27 08:13:53;;;;;;;;;;;;;;;43.67;10.53;96468.13;6376230;27;19931;-67
2022/06/27 08:17:00;;;;;;;;;;;;;;;41.43;11.74;96469.78;6358386;27;19923;-67
2022/06/27 08:20:02;;;;;;;;;;;;;;;40.17;12.32;96463.41;6375696;27;19923;-67
2022/06/27 08:23:04;;;;;;;;;;;;;;;40.05;12.40;96458.38;6375345;27;20419;-67
2022/06/27 08:26:08;;;;;;;;;;;;;;;41.28;11.85;96454.34;6376144;27;19927;-68
2022/06/27 08:29:15;;;;;;;;;;;;;;;43.36;10.18;96467.38;6375984;27;19930;-68
2022/06/27 08:32:19;;;;;;;;;;;;;;;43.99;10.39;96466.06;6376083;27;20389;-67
2022/06/27 08:35:24;;;;;;;;;;;;;;;45.22;9.62;96475.91;6375952;27;20408;-67
2022/06/27 08:38:31;;;;;;;;;;;;;;;44.86;9.39;96479.09;6375728;27;19923;-67
2022/06/27 08:41:35;;;;;;;;;;;;;;;44.13;9.74;96469.50;6375829;27;19923;-68
2022/06/27 08:44:39;;;;;;;;;;;;;;;44.79;9.52;96474.06;6374821;27;19926;-68
2022/06/27 08:47:46;;;;;;;;;;;;;;;46.34;9.11;96477.19;6375383;27;19924;-67
2022/06/27 08:50:50;;;;;;;;;;;;;;;46.65;8.68;96475.91;6374076;27;20308;-67
2022/06/27 08:53:54;;;;;;;;;;;;;;;45.62;8.94;96472.78;6374491;27;19923;-66
2022/06/27 08:56:58;;;;;;;;;;;;;;;44.95;9.44;96460.44;6375481;27;20281;-66
2022/06/27 09:00:04;;;;;;;;;;;;;;;45.23;9.23;96461.66;6374519;27;20425;-66
2022/06/27 09:03:06;;;;;;;;;;;;;;;44.59;9.16;96470.00;6375071;27;19934;-67
2022/06/27 09:06:10;;;;;;;;;;;;;;;43.35;9.76;96449.94;6375107;27;19967;-67
2022/06/27 09:09:15;;;;;;;;;;;;;;;42.63;10.57;96451.03;6374212;27;19923;-68
2022/06/27 09:12:21;;;;;;;;;;;;;;;42.51;10.00;96448.03;6338691;27;19923;-67
2022/06/27 09:15:26;;;;;;;;;;;;;;;42.22;10.27;96440.97;6356924;27;19923;-66
2022/06/27 09:18:30;;;;;;;;;;;;;;;41.33;10.99;96442.38;6373840;27;19923;-67
2022/06/27 09:21:37;;;;;;;;;;;;;;;40.72;11.17;96443.56;6374844;27;19977;-67
2022/06/27 09:25:00;;;;;;;;;;;;;;;40.02;11.58;96436.94;6374951;27;19924;-66
2022/06/27 09:28:01;;;;;;;;;;;;;;;39.98;11.44;96424.88;6360365;27;19927;-67
2022/06/27 09:31:04;;;;;;;;;;;;;;;39.06;11.68;96437.06;6374605;27;19923;-67
2022/06/27 09:34:14;;;;;;;;;;;;;;;39.32;11.60;96423.03;6374431;27;20014;-66
2022/06/27 09:37:18;;;;;;;;;;;;;;;40.00;11.14;96430.88;6374452;27;19931;-67
2022/06/27 09:40:25;;;;;;;;;;;;;;;39.82;11.35;96431.72;6374266;27;19927;-67
2022/06/27 09:43:27;;;;;;;;;;;;;;;39.36;11.22;96430.41;6373317;27;19924;-67
2022/06/27 09:46:34;;;;;;;;;;;;;;;39.05;11.53;96419.75;6373466;27;19930;-67
2022/06/27 09:49:41;;;;;;;;;;;;;;;37.91;12.28;96426.50;6374020;27;19923;-68
2022/06/27 09:52:42;;;;;;;;;;;;;;;37.37;13.37;96419.13;6374106;27;19923;-67
2022/06/27 09:55:46;;;;;;;;;;;;;;;37.75;13.00;96411.22;6372987;27;19946;-67
2022/06/27 09:58:51;;;;;;;;;;;;;;;38.22;12.75;96407.06;6373875;27;19985;-67
2022/06/27 10:01:57;;;;;;;;;;;;;;;37.92;12.77;96408.91;6373338;27;20007;-67
2022/06/27 10:05:00;;;;;;;;;;;;;;;37.50;13.16;96396.56;6373857;27;19949;-68
2022/06/27 10:08:03;;;;;;;;;;;;;;;37.35;13.55;96393.88;6373964;27;19923;-68
2022/06/27 10:11:08;;;;;;;;;;;;;;;37.82;13.28;96395.28;6373064;27;20380;-66
2022/06/27 10:14:22;;;;;;;;;;;;;;;37.73;13.43;96389.53;6373338;27;20320;-68
2022/06/27 10:17:28;;;;;;;;;;;;;;;37.36;13.43;96389.19;6373595;27;19927;-67
2022/06/27 10:20:47;;;;;;;;;;;;;;;35.93;13.81;96396.59;6373507;27;19924;-66
2022/06/27 10:24:16;;;;;;;;;;;;;;;35.06;14.52;96387.31;6373235;27;19970;-67
2022/06/27 10:27:30;;;;;;;;;;;;;;;35.45;13.97;96386.91;6341250;27;20396;-67
2022/06/27 10:30:46;;;;;;;;;;;;;;;35.94;13.45;96381.78;6372017;27;20016;-68
2022/06/27 10:33:50;;;;;;;;;;;;;;;36.03;13.86;96379.31;6354779;27;19930;-67
2022/06/27 10:37:11;;;;;;;;;;;;;;;35.88;14.09;96382.06;6372460;27;19923;-67
2022/06/27 10:40:20;;;;;;;;;;;;;;;34.88;14.58;96383.13;6372643;27;20285;-68
2022/06/27 10:43:36;;;;;;;;;;;;;;;34.64;14.76;96374.53;6372521;27;19923;-68
2022/06/27 10:46:39;;;;;;;;;;;;;;;34.74;14.77;96374.59;6372575;27;19923;-67
2022/06/27 10:49:42;;;;;;;;;;;;;;;34.86;14.70;96372.44;6372010;27;19923;-67
2022/06/27 10:52:46;;;;;;;;;;;;;;;34.35;14.96;96366.66;6372633;27;19927;-68
2022/06/27 10:55:50;;;;;;;;;;;;;;;32.95;16.01;96367.47;6371414;27;20059;-68
2022/06/27 10:58:51;;;;;;;;;;;;;;;32.11;16.65;96354.84;6371857;27;19967;-67
2022/06/27 11:01:57;;;;;;;;;;;;;;;32.04;16.97;96370.50;6371218;27;20345;-67
2022/06/27 11:05:01;;;;;;;;;;;;;;;32.29;16.30;96371.97;6372188;27;19923;-67
2022/06/27 11:08:02;;;;;;;;;;;;;;;31.91;16.81;96373.59;6372172;27;19919;-67
2022/06/27 11:11:04;;;;;;;;;;;;;;;32.00;16.66;96368.56;6372065;27;19923;-68
2022/06/27 11:14:08;;;;;;;;;;;;;;;32.18;16.51;96379.97;6371812;27;19930;-68
2022/06/27 11:17:25;;;;;;;;;;;;;;;31.40;16.94;96369.94;6371293;27;19924;-67
2022/06/27 11:20:31;;;;;;;;;;;;;;;30.78;17.32;96362.41;6371383;27;20216;-68
2022/06/27 11:23:48;;;;;;;;;;;;;;;30.19;17.48;96357.03;6371828;27;19923;-67
2022/06/27 11:26:54;;;;;;;;;;;;;;;30.37;17.74;96356.91;6371780;27;19923;-68
2022/06/27 11:33:22;;;;;;;;;;;;;;;30.91;17.37;96356.72;6371549;27;19931;-67
2022/06/27 11:36:24;;;;;;;;;;;;;;;30.33;17.86;96347.59;6371800;27;19930;-68
2022/06/27 11:39:31;;;;;;;;;;;;;;;29.87;17.99;96335.69;6371332;27;19923;-68
2022/06/27 11:42:33;;;;;;;;;;;;;;;29.40;18.28;96330.13;6371329;27;19924;-67
2022/06/27 11:45:40;;;;;;;;;;;;;;;29.05;18.67;96327.31;6370332;27;19923;-68
2022/06/27 11:48:49;;;;;;;;;;;;;;;29.17;18.59;96332.78;6370144;27;20376;-68
2022/06/27 11:51:56;;;;;;;;;;;;;;;29.48;18.22;96327.09;6370720;27;19923;-68
2022/06/27 11:55:05;;;;;;;;;;;;;;;29.81;18.05;96325.78;6370079;27;19923;-67
2022/06/27 11:58:06;;;;;;;;;;;;;;;29.95;18.21;96326.34;6371203;27;19923;-67
2022/06/27 12:01:12;;;;;;;;;;;;;;;29.97;18.18;96326.94;6371021;27;19923;-68
2022/06/27 12:04:14;;;;;;;;;;;;;;;29.63;18.26;96331.28;6370213;27;19923;-67
2022/06/27 12:07:17;;;;;;;;;;;;;;;29.07;18.55;96328.75;6369840;28;19946;-68
2022/06/27 12:10:36;;;;;;;;;;;;;;;29.03;18.50;96318.59;6370982;28;19923;-68
2022/06/27 12:13:42;;;;;;;;;;;;;;;29.12;18.60;96317.19;6370885;28;19924;-67
2022/06/27 12:16:44;;;;;;;;;;;;;;;29.03;19.10;96308.56;6370926;28;19957;-67
2022/06/27 12:19:58;;;;;;;;;;;;;;;28.92;19.67;96306.63;6370967;28;20404;-67
2022/06/27 12:23:00;;;;;;;;;;;;;;;28.75;19.65;96305.59;6369237;28;20316;-68
2022/06/27 12:26:06;;;;;;;;;;;;;;;28.96;19.63;96310.53;6370753;28;19923;-68
2022/06/27 12:29:10;;;;;;;;;;;;;;;28.57;19.73;96309.97;6370400;28;20316;-69
2022/06/27 12:32:13;;;;;;;;;;;;;;;28.25;20.09;96303.03;6370070;28;20096;-68
2022/06/27 12:35:19;;;;;;;;;;;;;;;27.86;20.07;96318.63;6370915;28;20052;-68
2022/06/27 12:38:20;;;;;;;;;;;;;;;27.57;20.47;96312.78;6370214;28;19923;-68
2022/06/27 12:41:24;;;;;;;;;;;;;;;27.25;20.64;96318.22;6370363;28;19959;-68
2022/06/27 12:44:28;;;;;;;;;;;;;;;26.98;21.18;96320.25;6370375;28;19923;-68
2022/06/27 12:47:29;;;;;;;;;;;;;;;26.78;21.85;96323.03;6369461;28;20050;-67
2022/06/27 12:50:35;;;;;;;;;;;;;;;26.74;22.35;96321.78;6370409;28;20352;-68
2022/06/27 12:53:36;;;;;;;;;;;;;;;26.59;23.22;96330.16;6371522;27;19946;-68
2022/06/27 12:56:40;;;;;;;;;;;;;;;26.08;23.70;96328.22;6375424;27;19923;-68
2022/06/27 12:59:41;;;;;;;;;;;;;;;25.54;24.30;96313.94;6375151;27;20072;-67
2022/06/27 13:02:44;;;;;;;;;;;;;;;25.01;25.15;96313.00;6374586;27;20413;-67
2022/06/27 13:05:52;;;;;;;;;;;;;;;24.78;25.49;96314.19;6375037;27;19923;-67
2022/06/27 13:08:58;;;;;;;;;;;;;;;24.73;26.09;96313.13;6374815;27;19923;-68
2022/06/27 13:12:00;;;;;;;;;;;;;;;24.91;25.70;96321.47;6373899;27;19985;-67
2022/06/27 13:15:04;;;;;;;;;;;;;;;24.79;25.28;96317.69;6374910;27;19923;-67
2022/06/27 13:18:07;;;;;;;;;;;;;;;24.68;25.50;96316.41;6374554;27;20423;-68
2022/06/27 13:21:08;;;;;;;;;;;;;;;24.59;25.48;96313.06;6374057;27;19930;-68
2022/06/27 13:24:14;;;;;;;;;;;;;;;24.74;25.50;96309.41;6374467;27;20015;-69
2022/06/27 13:27:17;;;;;;;;;;;;;;;25.18;25.27;96302.72;6373500;27;20396;-68
2022/06/27 13:30:22;;;;;;;;;;;;;;;25.35;24.66;96301.28;6373750;27;20013;-69
2022/06/27 13:33:33;;;;;;;;;;;;;;;25.03;25.30;96303.69;6374282;27;19954;-67
2022/06/27 13:36:40;;;;;;;;;;;;;;;24.56;26.20;96299.22;6374546;27;20006;-67
2022/06/27 13:39:44;;;;;;;;;;;;;;;24.14;27.09;96299.19;6374225;27;19923;-67
2022/06/27 13:42:50;;;;;;;;;;;;;;;23.90;27.43;96297.00;6371805;27;19924;-67
2022/06/27 13:45:56;;;;;;;;;;;;;;;23.84;27.42;96297.78;6373786;27;19928;-68
2022/06/27 13:48:57;;;;;;;;;;;;;;;24.00;27.64;96297.44;6373238;27;19962;-67
2022/06/27 13:51:58;;;;;;;;;;;;;;;23.90;27.62;96294.31;6372917;27;19929;-67
2022/06/27 13:55:02;;;;;;;;;;;;;;;24.07;27.63;96303.69;6373815;27;20383;-67
2022/06/27 13:58:05;;;;;;;;;;;;;;;24.03;27.20;96294.38;6372708;27;19978;-68
2022/06/27 14:01:08;;;;;;;;;;;;;;;23.95;27.72;96294.53;6373424;27;19923;-67
2022/06/27 14:04:10;;;;;;;;;;;;;;;23.84;27.85;96297.78;6371718;27;19930;-68
2022/06/27 14:10:33;;;;;;;;;;;;;;;23.65;27.21;96310.00;6372363;27;19923;-68
2022/06/27 14:13:40;;;;;;;;;;;;;;;23.47;27.82;96307.81;6373430;27;19923;-68
2022/06/27 14:16:46;;;;;;;;;;;;;;;23.35;28.18;96309.34;6373454;27;19923;-68
2022/06/27 14:19:47;;;;;;;;;;;;;;;23.18;28.79;96304.22;6372473;27;19945;-67
2022/06/27 14:22:48;;;;;;;;;;;;;;;23.03;29.13;96301.63;6372472;27;19923;-67
2022/06/27 14:25:49;;;;;;;;;;;;;;;22.90;29.68;96297.94;6372289;27;19927;-67
2022/06/27 14:28:51;;;;;;;;;;;;;;;22.79;29.90;96300.13;6372052;27;19951;-68
2022/06/27 14:31:54;;;;;;;;;;;;;;;22.71;30.01;96300.22;6372705;27;19923;-68
2022/06/27 14:34:59;;;;;;;;;;;;;;;22.64;30.07;96291.25;6370983;27;19923;-68
2022/06/27 14:38:02;;;;;;;;;;;;;;;22.64;30.29;96292.09;6372304;27;20401;-67
2022/06/27 14:41:06;;;;;;;;;;;;;;;22.64;30.52;96293.94;6372836;27;20013;-68
2022/06/27 14:44:08;;;;;;;;;;;;;;;22.73;30.47;96290.16;6371666;27;19947;-68
2022/06/27 14:47:09;;;;;;;;;;;;;;;22.70;30.37;96295.88;6371548;27;19923;-68
2022/06/27 14:50:13;;;;;;;;;;;;;;;22.72;30.58;96288.47;6372135;27;19931;-68
2022/06/27 14:53:17;;;;;;;;;;;;;;;22.93;30.12;96297.53;6372059;27;19923;-67
2022/06/27 14:56:21;;;;;;;;;;;;;;;23.04;30.51;96291.72;6371370;27;19931;-68
2022/06/27 14:59:22;;;;;;;;;;;;;;;22.90;30.47;96289.88;6371393;27;19930;-68
2022/06/27 15:02:23;;;;;;;;;;;;;;;22.66;30.75;96299.13;6372285;27;19930;-68
2022/06/27 15:05:26;;;;;;;;;;;;;;;22.56;31.04;96288.69;6371420;27;19923;-68
2022/06/27 15:08:27;;;;;;;;;;;;;;;22.34;31.07;96283.31;6371376;27;19923;-68
2022/06/27 15:11:36;;;;;;;;;;;;;;;22.12;31.19;96286.91;6371905;27;19924;-68
2022/06/27 15:14:40;;;;;;;;;;;;;;;22.02;31.29;96286.34;6371647;27;19923;-68
2022/06/27 15:17:43;;;;;;;;;;;;;;;21.82;31.93;96280.69;6371123;27;19923;-68
2022/06/27 15:20:47;;;;;;;;;;;;;;;21.67;31.86;96278.84;6370711;27;19926;-68
2022/06/27 15:23:50;;;;;;;;;;;;;;;21.49;32.77;96279.19;6370878;27;20044;-68
2022/06/27 15:26:54;;;;;;;;;;;;;;;21.06;32.96;96270.00;6370708;27;19923;-68
2022/06/27 15:29:55;;;;;;;;;;;;;;;20.71;33.40;96261.59;6370361;27;19930;-69
2022/06/27 15:33:02;;;;;;;;;;;;;;;20.53;33.67;96258.38;6353526;27;20389;-68
2022/06/27 15:36:05;;;;;;;;;;;;;;;20.44;33.83;96270.06;6370808;27;19985;-68
2022/06/27 15:39:06;;;;;;;;;;;;;;;20.33;34.09;96264.13;6370440;27;20281;-68
2022/06/27 15:42:10;;;;;;;;;;;;;;;20.16;34.17;96266.06;6371210;27;19923;-68
2022/06/27 15:45:15;;;;;;;;;;;;;;;20.07;34.64;96268.91;6370618;27;19969;-68
2022/06/27 15:48:16;;;;;;;;;;;;;;;19.87;34.88;96273.81;6370733;27;19937;-67
2022/06/27 15:51:18;;;;;;;;;;;;;;;19.72;35.24;96274.53;6370124;27;20019;-67
2022/06/27 15:54:21;;;;;;;;;;;;;;;19.55;35.89;96275.56;6370975;27;19929;-68
2022/06/27 15:57:25;;;;;;;;;;;;;;;19.50;36.07;96275.22;6369967;27;19923;-68
2022/06/27 16:00:26;;;;;;;;;;;;;;;19.38;36.26;96273.91;6370320;27;19950;-67
2022/06/27 16:03:27;;;;;;;;;;;;;;;19.27;36.25;96289.25;6370169;27;20454;-68
2022/06/27 16:06:31;;;;;;;;;;;;;;;19.18;36.38;96289.44;6370256;27;19930;-68